sensor_id;sensor_type;location;lat;lon;timestamp;P1;durP1;ratioP1;P2;durP2;ratioP2
11957;SDS011;6039;52.576;13.348;2023-12-20T00:02:00;7.23;;;4.93;;
11957;SDS011;6039;52.576;13.348;2023-12-20T00:07:04;8.07;;;4.93;;
11957;SDS011;6039;52.576;13.348;2023-12-20T00:12:09;9.00;;;4.63;;
11957;SDS011;6039;52.576;13.348;2023-12-20T00:17:16;7.33;;;4.90;;
11957;SDS011;6039;52.576;13.348;2023-12-20T00:22:20;7.27;;;4.97;;
11957;SDS011;6039;52.576;13.348;2023-12-20T00:27:24;8.90;;;4.47;;
11957;SDS011;6039;52.576;13.348;2023-12-20T00:32:30;6.97;;;4.87;;
11957;SDS011;6039;52.576;13.348;2023-12-20T00:37:34;7.17;;;4.70;;
11957;SDS011;6039;52.576;13.348;2023-12-20T00:42:38;8.70;;;4.93;;
11957;SDS011;6039;52.576;13.348;2023-12-20T00:47:45;5.70;;;4.27;;
11957;SDS011;6039;52.576;13.348;2023-12-20T00:52:49;7.70;;;4.83;;
11957;SDS011;6039;52.576;13.348;2023-12-20T00:57:54;6.73;;;4.40;;
11957;SDS011;6039;52.576;13.348;2023-12-20T01:03:02;6.43;;;4.27;;
11957;SDS011;6039;52.576;13.348;2023-12-20T01:08:06;7.67;;;5.00;;
11957;SDS011;6039;52.576;13.348;2023-12-20T01:13:10;6.53;;;4.47;;
11957;SDS011;6039;52.576;13.348;2023-12-20T01:18:16;7.47;;;4.63;;
11957;SDS011;6039;52.576;13.348;2023-12-20T01:23:21;7.37;;;4.40;;
11957;SDS011;6039;52.576;13.348;2023-12-20T01:28:24;6.37;;;4.30;;
11957;SDS011;6039;52.576;13.348;2023-12-20T01:33:32;6.47;;;4.33;;
11957;SDS011;6039;52.576;13.348;2023-12-20T01:38:36;5.10;;;3.60;;
11957;SDS011;6039;52.576;13.348;2023-12-20T01:43:40;5.50;;;3.50;;
11957;SDS011;6039;52.576;13.348;2023-12-20T01:48:46;5.03;;;3.27;;
11957;SDS011;6039;52.576;13.348;2023-12-20T01:53:50;5.90;;;3.80;;
11957;SDS011;6039;52.576;13.348;2023-12-20T01:58:54;5.13;;;3.30;;
11957;SDS011;6039;52.576;13.348;2023-12-20T02:04:02;4.03;;;2.67;;
11957;SDS011;6039;52.576;13.348;2023-12-20T02:09:06;4.60;;;2.20;;
11957;SDS011;6039;52.576;13.348;2023-12-20T02:14:10;5.20;;;2.33;;
11957;SDS011;6039;52.576;13.348;2023-12-20T02:19:17;4.17;;;2.37;;
11957;SDS011;6039;52.576;13.348;2023-12-20T02:24:24;3.43;;;2.00;;
11957;SDS011;6039;52.576;13.348;2023-12-20T02:29:27;3.20;;;1.90;;
11957;SDS011;6039;52.576;13.348;2023-12-20T02:34:32;2.33;;;1.67;;
11957;SDS011;6039;52.576;13.348;2023-12-20T02:39:38;2.43;;;1.60;;
11957;SDS011;6039;52.576;13.348;2023-12-20T02:44:42;4.70;;;1.60;;
11957;SDS011;6039;52.576;13.348;2023-12-20T02:49:46;3.30;;;1.53;;
11957;SDS011;6039;52.576;13.348;2023-12-20T02:54:53;3.27;;;1.57;;
11957;SDS011;6039;52.576;13.348;2023-12-20T02:59:57;1.87;;;1.47;;
11957;SDS011;6039;52.576;13.348;2023-12-20T03:05:01;2.93;;;1.60;;
11957;SDS011;6039;52.576;13.348;2023-12-20T03:10:08;2.23;;;1.60;;
11957;SDS011;6039;52.576;13.348;2023-12-20T03:15:12;2.73;;;1.60;;
11957;SDS011;6039;52.576;13.348;2023-12-20T03:20:16;2.87;;;1.97;;
11957;SDS011;6039;52.576;13.348;2023-12-20T03:25:22;5.03;;;1.60;;
11957;SDS011;6039;52.576;13.348;2023-12-20T03:30:26;4.47;;;1.33;;
11957;SDS011;6039;52.576;13.348;2023-12-20T03:35:30;4.63;;;1.43;;
11957;SDS011;6039;52.576;13.348;2023-12-20T03:40:36;2.63;;;1.40;;
11957;SDS011;6039;52.576;13.348;2023-12-20T03:45:41;3.90;;;1.63;;
11957;SDS011;6039;52.576;13.348;2023-12-20T03:50:45;4.40;;;1.33;;
11957;SDS011;6039;52.576;13.348;2023-12-20T03:55:52;3.83;;;1.50;;
11957;SDS011;6039;52.576;13.348;2023-12-20T04:00:56;3.57;;;1.60;;
11957;SDS011;6039;52.576;13.348;2023-12-20T04:06:00;5.83;;;1.60;;
11957;SDS011;6039;52.576;13.348;2023-12-20T04:11:06;3.97;;;1.33;;
11957;SDS011;6039;52.576;13.348;2023-12-20T04:16:10;8.33;;;2.20;;
11957;SDS011;6039;52.576;13.348;2023-12-20T04:21:14;7.87;;;1.70;;
11957;SDS011;6039;52.576;13.348;2023-12-20T04:26:21;8.87;;;1.90;;
11957;SDS011;6039;52.576;13.348;2023-12-20T04:31:25;4.13;;;1.60;;
11957;SDS011;6039;52.576;13.348;2023-12-20T04:36:29;3.57;;;1.40;;
11957;SDS011;6039;52.576;13.348;2023-12-20T04:41:35;5.07;;;1.50;;
11957;SDS011;6039;52.576;13.348;2023-12-20T04:46:39;3.10;;;1.53;;
11957;SDS011;6039;52.576;13.348;2023-12-20T04:51:43;2.83;;;1.37;;
11957;SDS011;6039;52.576;13.348;2023-12-20T04:56:50;2.93;;;1.50;;
11957;SDS011;6039;52.576;13.348;2023-12-20T05:01:54;3.73;;;1.50;;
11957;SDS011;6039;52.576;13.348;2023-12-20T05:06:58;4.70;;;1.60;;
11957;SDS011;6039;52.576;13.348;2023-12-20T05:12:07;6.10;;;1.70;;
11957;SDS011;6039;52.576;13.348;2023-12-20T05:17:11;4.17;;;2.07;;
11957;SDS011;6039;52.576;13.348;2023-12-20T05:22:15;5.60;;;1.80;;
11957;SDS011;6039;52.576;13.348;2023-12-20T05:27:22;5.57;;;1.80;;
11957;SDS011;6039;52.576;13.348;2023-12-20T05:32:26;6.37;;;1.50;;
11957;SDS011;6039;52.576;13.348;2023-12-20T05:37:30;6.50;;;1.67;;
11957;SDS011;6039;52.576;13.348;2023-12-20T05:42:37;3.97;;;1.43;;
11957;SDS011;6039;52.576;13.348;2023-12-20T05:47:41;4.80;;;1.83;;
11957;SDS011;6039;52.576;13.348;2023-12-20T05:52:45;8.90;;;1.53;;
11957;SDS011;6039;52.576;13.348;2023-12-20T05:57:51;3.90;;;1.70;;
11957;SDS011;6039;52.576;13.348;2023-12-20T06:02:55;4.60;;;1.70;;
11957;SDS011;6039;52.576;13.348;2023-12-20T06:07:59;8.33;;;1.73;;
11957;SDS011;6039;52.576;13.348;2023-12-20T06:13:06;6.27;;;1.73;;
11957;SDS011;6039;52.576;13.348;2023-12-20T06:18:10;2.60;;;1.60;;
11957;SDS011;6039;52.576;13.348;2023-12-20T06:23:13;4.30;;;1.57;;
11957;SDS011;6039;52.576;13.348;2023-12-20T06:28:20;6.53;;;1.80;;
11957;SDS011;6039;52.576;13.348;2023-12-20T06:33:24;3.00;;;1.60;;
11957;SDS011;6039;52.576;13.348;2023-12-20T06:38:29;7.23;;;2.30;;
11957;SDS011;6039;52.576;13.348;2023-12-20T06:43:35;8.97;;;2.47;;
11957;SDS011;6039;52.576;13.348;2023-12-20T06:48:40;4.47;;;1.93;;
11957;SDS011;6039;52.576;13.348;2023-12-20T06:53:44;7.53;;;2.07;;
11957;SDS011;6039;52.576;13.348;2023-12-20T06:58:51;9.53;;;2.50;;
11957;SDS011;6039;52.576;13.348;2023-12-20T07:03:55;5.37;;;2.20;;
11957;SDS011;6039;52.576;13.348;2023-12-20T07:08:59;6.00;;;2.03;;
11957;SDS011;6039;52.576;13.348;2023-12-20T07:14:06;7.33;;;1.90;;
11957;SDS011;6039;52.576;13.348;2023-12-20T07:19:10;6.03;;;2.63;;
11957;SDS011;6039;52.576;13.348;2023-12-20T07:24:14;6.73;;;2.00;;
11957;SDS011;6039;52.576;13.348;2023-12-20T07:29:20;6.77;;;2.30;;
11957;SDS011;6039;52.576;13.348;2023-12-20T07:34:24;6.57;;;2.03;;
11957;SDS011;6039;52.576;13.348;2023-12-20T07:39:28;4.80;;;2.20;;
11957;SDS011;6039;52.576;13.348;2023-12-20T07:44:35;6.13;;;2.70;;
11957;SDS011;6039;52.576;13.348;2023-12-20T07:49:39;7.20;;;2.57;;
11957;SDS011;6039;52.576;13.348;2023-12-20T07:54:43;8.13;;;1.90;;
11957;SDS011;6039;52.576;13.348;2023-12-20T07:59:49;10.70;;;2.47;;
11957;SDS011;6039;52.576;13.348;2023-12-20T08:04:53;5.67;;;1.80;;
11957;SDS011;6039;52.576;13.348;2023-12-20T08:09:57;6.00;;;2.30;;
11957;SDS011;6039;52.576;13.348;2023-12-20T08:15:04;6.53;;;2.23;;
11957;SDS011;6039;52.576;13.348;2023-12-20T08:20:09;5.73;;;2.27;;
11957;SDS011;6039;52.576;13.348;2023-12-20T08:25:13;5.27;;;2.17;;
11957;SDS011;6039;52.576;13.348;2023-12-20T08:30:20;7.60;;;2.00;;
11957;SDS011;6039;52.576;13.348;2023-12-20T08:35:25;2.80;;;1.90;;
11957;SDS011;6039;52.576;13.348;2023-12-20T08:40:29;5.33;;;2.20;;
11957;SDS011;6039;52.576;13.348;2023-12-20T08:45:35;9.70;;;2.23;;
11957;SDS011;6039;52.576;13.348;2023-12-20T08:50:40;4.67;;;2.10;;
11957;SDS011;6039;52.576;13.348;2023-12-20T08:55:44;7.20;;;2.10;;
11957;SDS011;6039;52.576;13.348;2023-12-20T09:00:50;6.30;;;1.70;;
11957;SDS011;6039;52.576;13.348;2023-12-20T09:05:54;10.50;;;2.10;;
11957;SDS011;6039;52.576;13.348;2023-12-20T09:10:58;2.77;;;1.93;;
11957;SDS011;6039;52.576;13.348;2023-12-20T09:16:05;7.43;;;2.00;;
11957;SDS011;6039;52.576;13.348;2023-12-20T09:21:09;4.83;;;1.77;;
11957;SDS011;6039;52.576;13.348;2023-12-20T09:26:13;6.90;;;1.77;;
11957;SDS011;6039;52.576;13.348;2023-12-20T09:31:19;4.33;;;2.30;;
11957;SDS011;6039;52.576;13.348;2023-12-20T09:36:24;4.83;;;2.13;;
11957;SDS011;6039;52.576;13.348;2023-12-20T09:41:28;3.23;;;1.57;;
11957;SDS011;6039;52.576;13.348;2023-12-20T09:46:39;6.37;;;2.43;;
11957;SDS011;6039;52.576;13.348;2023-12-20T09:51:47;6.27;;;2.10;;
11957;SDS011;6039;52.576;13.348;2023-12-20T09:56:51;4.00;;;2.10;;
11957;SDS011;6039;52.576;13.348;2023-12-20T10:01:58;7.37;;;1.60;;
11957;SDS011;6039;52.576;13.348;2023-12-20T10:07:08;7.13;;;1.83;;
11957;SDS011;6039;52.576;13.348;2023-12-20T10:12:12;6.20;;;2.20;;
11957;SDS011;6039;52.576;13.348;2023-12-20T10:17:19;5.73;;;1.87;;
11957;SDS011;6039;52.576;13.348;2023-12-20T10:22:29;7.63;;;2.43;;
11957;SDS011;6039;52.576;13.348;2023-12-20T10:27:33;7.53;;;2.47;;
11957;SDS011;6039;52.576;13.348;2023-12-20T10:32:39;5.70;;;1.87;;
11957;SDS011;6039;52.576;13.348;2023-12-20T10:37:43;7.53;;;1.83;;
11957;SDS011;6039;52.576;13.348;2023-12-20T10:42:47;4.13;;;2.23;;
11957;SDS011;6039;52.576;13.348;2023-12-20T10:47:54;6.20;;;2.30;;
11957;SDS011;6039;52.576;13.348;2023-12-20T10:52:59;4.73;;;2.00;;
11957;SDS011;6039;52.576;13.348;2023-12-20T10:58:06;5.97;;;2.03;;
11957;SDS011;6039;52.576;13.348;2023-12-20T11:03:13;5.13;;;2.07;;
11957;SDS011;6039;52.576;13.348;2023-12-20T11:08:20;10.60;;;2.20;;
11957;SDS011;6039;52.576;13.348;2023-12-20T11:13:32;7.70;;;2.53;;
11957;SDS011;6039;52.576;13.348;2023-12-20T11:18:39;4.83;;;1.90;;
11957;SDS011;6039;52.576;13.348;2023-12-20T11:23:44;12.03;;;2.40;;
11957;SDS011;6039;52.576;13.348;2023-12-20T11:28:48;4.87;;;2.20;;
11957;SDS011;6039;52.576;13.348;2023-12-20T11:33:55;5.73;;;2.07;;
11957;SDS011;6039;52.576;13.348;2023-12-20T11:39:21;5.70;;;2.20;;
11957;SDS011;6039;52.576;13.348;2023-12-20T11:44:25;5.23;;;2.90;;
11957;SDS011;6039;52.576;13.348;2023-12-20T11:49:32;9.60;;;2.67;;
11957;SDS011;6039;52.576;13.348;2023-12-20T11:54:36;7.10;;;2.33;;
11957;SDS011;6039;52.576;13.348;2023-12-20T11:59:40;6.83;;;2.10;;
11957;SDS011;6039;52.576;13.348;2023-12-20T12:04:46;10.43;;;1.90;;
11957;SDS011;6039;52.576;13.348;2023-12-20T12:09:52;5.23;;;1.80;;
11957;SDS011;6039;52.576;13.348;2023-12-20T12:14:56;4.70;;;2.17;;
11957;SDS011;6039;52.576;13.348;2023-12-20T12:20:06;9.43;;;2.03;;
11957;SDS011;6039;52.576;13.348;2023-12-20T12:25:12;8.37;;;2.30;;
11957;SDS011;6039;52.576;13.348;2023-12-20T12:30:16;7.83;;;2.10;;
11957;SDS011;6039;52.576;13.348;2023-12-20T12:35:23;7.43;;;2.97;;
11957;SDS011;6039;52.576;13.348;2023-12-20T12:40:27;4.83;;;2.33;;
11957;SDS011;6039;52.576;13.348;2023-12-20T12:45:31;3.93;;;2.13;;
11957;SDS011;6039;52.576;13.348;2023-12-20T12:50:38;5.87;;;2.60;;
11957;SDS011;6039;52.576;13.348;2023-12-20T12:55:43;5.27;;;2.13;;
11957;SDS011;6039;52.576;13.348;2023-12-20T13:00:47;6.27;;;2.40;;
11957;SDS011;6039;52.576;13.348;2023-12-20T13:05:54;7.17;;;2.83;;
11957;SDS011;6039;52.576;13.348;2023-12-20T13:10:58;7.40;;;2.53;;
11957;SDS011;6039;52.576;13.348;2023-12-20T13:16:04;9.13;;;2.57;;
11957;SDS011;6039;52.576;13.348;2023-12-20T13:21:11;6.63;;;2.00;;
11957;SDS011;6039;52.576;13.348;2023-12-20T13:26:15;7.63;;;2.10;;
11957;SDS011;6039;52.576;13.348;2023-12-20T13:31:19;2.80;;;1.70;;
11957;SDS011;6039;52.576;13.348;2023-12-20T13:36:26;2.57;;;1.30;;
11957;SDS011;6039;52.576;13.348;2023-12-20T13:41:30;1.63;;;1.10;;
11957;SDS011;6039;52.576;13.348;2023-12-20T13:46:34;1.40;;;1.00;;
11957;SDS011;6039;52.576;13.348;2023-12-20T13:51:41;3.00;;;0.73;;
11957;SDS011;6039;52.576;13.348;2023-12-20T13:56:45;1.20;;;0.70;;
11957;SDS011;6039;52.576;13.348;2023-12-20T14:01:49;14.83;;;1.47;;
11957;SDS011;6039;52.576;13.348;2023-12-20T14:06:55;1.97;;;1.10;;
11957;SDS011;6039;52.576;13.348;2023-12-20T14:11:59;1.63;;;0.97;;
11957;SDS011;6039;52.576;13.348;2023-12-20T14:17:03;1.87;;;1.00;;
11957;SDS011;6039;52.576;13.348;2023-12-20T14:22:11;1.53;;;1.00;;
11957;SDS011;6039;52.576;13.348;2023-12-20T14:27:16;1.63;;;0.67;;
11957;SDS011;6039;52.576;13.348;2023-12-20T14:32:24;1.57;;;1.00;;
11957;SDS011;6039;52.576;13.348;2023-12-20T14:37:31;4.53;;;1.97;;
11957;SDS011;6039;52.576;13.348;2023-12-20T14:42:35;2.97;;;0.93;;
11957;SDS011;6039;52.576;13.348;2023-12-20T14:47:39;1.93;;;0.70;;
11957;SDS011;6039;52.576;13.348;2023-12-20T14:52:45;2.23;;;0.73;;
11957;SDS011;6039;52.576;13.348;2023-12-20T14:57:49;3.80;;;1.00;;
11957;SDS011;6039;52.576;13.348;2023-12-20T15:02:53;2.93;;;1.10;;
11957;SDS011;6039;52.576;13.348;2023-12-20T15:08:00;2.67;;;0.80;;
11957;SDS011;6039;52.576;13.348;2023-12-20T15:13:04;2.53;;;1.07;;
11957;SDS011;6039;52.576;13.348;2023-12-20T15:18:08;1.43;;;0.70;;
11957;SDS011;6039;52.576;13.348;2023-12-20T15:23:15;2.80;;;0.90;;
11957;SDS011;6039;52.576;13.348;2023-12-20T15:28:21;1.83;;;0.90;;
11957;SDS011;6039;52.576;13.348;2023-12-20T15:33:25;2.40;;;0.97;;
11957;SDS011;6039;52.576;13.348;2023-12-20T15:38:32;2.17;;;1.23;;
11957;SDS011;6039;52.576;13.348;2023-12-20T15:43:36;3.63;;;0.90;;
11957;SDS011;6039;52.576;13.348;2023-12-20T15:48:40;3.87;;;1.00;;
11957;SDS011;6039;52.576;13.348;2023-12-20T15:53:47;1.67;;;0.87;;
11957;SDS011;6039;52.576;13.348;2023-12-20T15:58:51;2.67;;;1.30;;
11957;SDS011;6039;52.576;13.348;2023-12-20T16:03:57;3.60;;;1.00;;
11957;SDS011;6039;52.576;13.348;2023-12-20T16:09:04;4.37;;;1.33;;
11957;SDS011;6039;52.576;13.348;2023-12-20T16:14:08;6.20;;;1.63;;
11957;SDS011;6039;52.576;13.348;2023-12-20T16:19:13;3.10;;;1.47;;
11957;SDS011;6039;52.576;13.348;2023-12-20T16:24:20;3.73;;;1.30;;
11957;SDS011;6039;52.576;13.348;2023-12-20T16:29:24;4.33;;;1.67;;
11957;SDS011;6039;52.576;13.348;2023-12-20T16:34:28;3.57;;;1.30;;
11957;SDS011;6039;52.576;13.348;2023-12-20T16:39:34;12.53;;;1.50;;
11957;SDS011;6039;52.576;13.348;2023-12-20T16:44:38;2.13;;;1.33;;
11957;SDS011;6039;52.576;13.348;2023-12-20T16:49:42;3.27;;;1.50;;
11957;SDS011;6039;52.576;13.348;2023-12-20T16:54:49;2.10;;;1.27;;
11957;SDS011;6039;52.576;13.348;2023-12-20T16:59:53;5.30;;;1.40;;
11957;SDS011;6039;52.576;13.348;2023-12-20T17:04:57;3.20;;;1.10;;
11957;SDS011;6039;52.576;13.348;2023-12-20T17:10:04;8.60;;;1.90;;
11957;SDS011;6039;52.576;13.348;2023-12-20T17:15:09;3.60;;;1.40;;
11957;SDS011;6039;52.576;13.348;2023-12-20T17:20:13;5.13;;;1.87;;
11957;SDS011;6039;52.576;13.348;2023-12-20T17:25:20;2.50;;;1.60;;
11957;SDS011;6039;52.576;13.348;2023-12-20T17:30:24;5.27;;;2.13;;
11957;SDS011;6039;52.576;13.348;2023-12-20T17:35:28;7.60;;;2.07;;
11957;SDS011;6039;52.576;13.348;2023-12-20T17:40:34;7.30;;;2.20;;
11957;SDS011;6039;52.576;13.348;2023-12-20T17:45:41;4.37;;;2.20;;
11957;SDS011;6039;52.576;13.348;2023-12-20T17:50:45;7.37;;;1.97;;
11957;SDS011;6039;52.576;13.348;2023-12-20T17:55:51;4.97;;;1.80;;
11957;SDS011;6039;52.576;13.348;2023-12-20T18:00:55;3.10;;;1.60;;
11957;SDS011;6039;52.576;13.348;2023-12-20T18:05:59;3.37;;;1.63;;
11957;SDS011;6039;52.576;13.348;2023-12-20T18:11:05;7.97;;;2.10;;
11957;SDS011;6039;52.576;13.348;2023-12-20T18:16:09;8.30;;;1.70;;
11957;SDS011;6039;52.576;13.348;2023-12-20T18:21:13;7.67;;;1.60;;
11957;SDS011;6039;52.576;13.348;2023-12-20T18:26:20;4.03;;;1.50;;
11957;SDS011;6039;52.576;13.348;2023-12-20T18:31:24;7.93;;;1.90;;
11957;SDS011;6039;52.576;13.348;2023-12-20T18:36:28;5.87;;;1.60;;
11957;SDS011;6039;52.576;13.348;2023-12-20T18:41:34;6.93;;;2.10;;
11957;SDS011;6039;52.576;13.348;2023-12-20T18:46:42;4.30;;;1.90;;
11957;SDS011;6039;52.576;13.348;2023-12-20T18:51:46;6.10;;;1.97;;
11957;SDS011;6039;52.576;13.348;2023-12-20T18:56:52;8.43;;;1.57;;
11957;SDS011;6039;52.576;13.348;2023-12-20T19:01:56;5.83;;;1.57;;
11957;SDS011;6039;52.576;13.348;2023-12-20T19:07:01;7.37;;;1.97;;
11957;SDS011;6039;52.576;13.348;2023-12-20T19:12:08;6.87;;;1.63;;
11957;SDS011;6039;52.576;13.348;2023-12-20T19:17:12;4.90;;;1.70;;
11957;SDS011;6039;52.576;13.348;2023-12-20T19:22:16;6.97;;;1.70;;
11957;SDS011;6039;52.576;13.348;2023-12-20T19:27:22;7.47;;;1.83;;
11957;SDS011;6039;52.576;13.348;2023-12-20T19:32:26;3.87;;;1.40;;
11957;SDS011;6039;52.576;13.348;2023-12-20T19:37:30;8.97;;;1.80;;
11957;SDS011;6039;52.576;13.348;2023-12-20T19:42:39;7.63;;;1.37;;
11957;SDS011;6039;52.576;13.348;2023-12-20T19:47:47;3.73;;;1.47;;
11957;SDS011;6039;52.576;13.348;2023-12-20T19:52:51;6.07;;;1.73;;
11957;SDS011;6039;52.576;13.348;2023-12-20T19:57:58;4.77;;;1.30;;
11957;SDS011;6039;52.576;13.348;2023-12-20T20:03:02;6.47;;;1.50;;
11957;SDS011;6039;52.576;13.348;2023-12-20T20:08:07;3.57;;;1.60;;
11957;SDS011;6039;52.576;13.348;2023-12-20T20:13:13;4.30;;;1.20;;
11957;SDS011;6039;52.576;13.348;2023-12-20T20:18:19;3.60;;;1.33;;
11957;SDS011;6039;52.576;13.348;2023-12-20T20:23:23;3.00;;;1.43;;
11957;SDS011;6039;52.576;13.348;2023-12-20T20:28:30;4.23;;;1.63;;
11957;SDS011;6039;52.576;13.348;2023-12-20T20:33:34;6.90;;;1.77;;
11957;SDS011;6039;52.576;13.348;2023-12-20T20:38:38;5.87;;;1.57;;
11957;SDS011;6039;52.576;13.348;2023-12-20T20:43:45;5.33;;;1.47;;
11957;SDS011;6039;52.576;13.348;2023-12-20T20:48:49;3.87;;;1.57;;
11957;SDS011;6039;52.576;13.348;2023-12-20T20:53:53;6.97;;;1.43;;
11957;SDS011;6039;52.576;13.348;2023-12-20T20:59:00;2.00;;;1.33;;
11957;SDS011;6039;52.576;13.348;2023-12-20T21:04:04;3.97;;;1.53;;
11957;SDS011;6039;52.576;13.348;2023-12-20T21:09:08;5.70;;;1.50;;
11957;SDS011;6039;52.576;13.348;2023-12-20T21:14:14;4.30;;;1.33;;
11957;SDS011;6039;52.576;13.348;2023-12-20T21:19:18;4.20;;;1.50;;
11957;SDS011;6039;52.576;13.348;2023-12-20T21:24:23;3.73;;;1.60;;
11957;SDS011;6039;52.576;13.348;2023-12-20T21:29:29;2.17;;;1.10;;
11957;SDS011;6039;52.576;13.348;2023-12-20T21:34:33;3.37;;;1.47;;
11957;SDS011;6039;52.576;13.348;2023-12-20T21:39:37;2.60;;;1.27;;
11957;SDS011;6039;52.576;13.348;2023-12-20T21:44:44;3.50;;;1.60;;
11957;SDS011;6039;52.576;13.348;2023-12-20T21:49:48;3.03;;;1.60;;
11957;SDS011;6039;52.576;13.348;2023-12-20T21:54:52;2.63;;;1.43;;
11957;SDS011;6039;52.576;13.348;2023-12-20T21:59:59;3.10;;;1.70;;
11957;SDS011;6039;52.576;13.348;2023-12-20T22:05:03;4.20;;;1.43;;
11957;SDS011;6039;52.576;13.348;2023-12-20T22:10:08;2.07;;;1.30;;
11957;SDS011;6039;52.576;13.348;2023-12-20T22:15:15;3.20;;;1.53;;
11957;SDS011;6039;52.576;13.348;2023-12-20T22:20:19;2.30;;;1.50;;
11957;SDS011;6039;52.576;13.348;2023-12-20T22:25:23;2.60;;;1.60;;
11957;SDS011;6039;52.576;13.348;2023-12-20T22:30:30;3.57;;;1.50;;
11957;SDS011;6039;52.576;13.348;2023-12-20T22:35:34;2.30;;;1.33;;
11957;SDS011;6039;52.576;13.348;2023-12-20T22:40:37;2.23;;;1.30;;
11957;SDS011;6039;52.576;13.348;2023-12-20T22:45:44;2.80;;;1.30;;
11957;SDS011;6039;52.576;13.348;2023-12-20T22:50:48;3.77;;;1.27;;
11957;SDS011;6039;52.576;13.348;2023-12-20T22:55:52;1.73;;;1.10;;
11957;SDS011;6039;52.576;13.348;2023-12-20T23:00:59;1.00;;;0.90;;
11957;SDS011;6039;52.576;13.348;2023-12-20T23:06:03;4.27;;;1.30;;
11957;SDS011;6039;52.576;13.348;2023-12-20T23:11:07;4.07;;;0.90;;
11957;SDS011;6039;52.576;13.348;2023-12-20T23:16:14;4.37;;;1.10;;
11957;SDS011;6039;52.576;13.348;2023-12-20T23:21:18;1.77;;;1.20;;
11957;SDS011;6039;52.576;13.348;2023-12-20T23:26:22;3.90;;;1.10;;
11957;SDS011;6039;52.576;13.348;2023-12-20T23:31:28;2.23;;;1.40;;
11957;SDS011;6039;52.576;13.348;2023-12-20T23:36:32;2.87;;;1.53;;
11957;SDS011;6039;52.576;13.348;2023-12-20T23:41:36;4.67;;;1.77;;
11957;SDS011;6039;52.576;13.348;2023-12-20T23:46:43;2.53;;;1.60;;
11957;SDS011;6039;52.576;13.348;2023-12-20T23:51:47;4.20;;;2.30;;
11957;SDS011;6039;52.576;13.348;2023-12-20T23:56:51;3.17;;;1.97;;
